mercredi 15 janvier 2014

ALERTE SPOTTING 15/01/14

734 EI-DDK Transaero
   UN559/UN560  12h15/13h45

73W OO-JAR Jetairfly
  JAF3943/JAF3944 13h35/14h25

73H Transavia F-GZHD
  dpt location Air Transat
    TS035 14h00

732 5U-BAG République du Niger
      parqué

744 EC-KQC Pullmantur Air
   parqué

 Manque les prévisions Air Europa / Norwegian / Flybe / certains Air Algérie

*** Heures en Local Time / prévisions soumises
 à modifications de dernières minutes ***

le TAF de la journée:

METAR: LFPO 150400Z 18007KT 4000 -RA FEW011 BKN023 04/02 Q1010 BECMG BKN012
 
TAF LONG: LFPO 141700Z 1418/1524 26010KT 9999 SCT020 
      BECMG 1418/1420 18005KT CAVOK PROB30
      TEMPO 1421/1501 7000 SCT008 BKN210
      TEMPO 1501/1504 -RA SCT040 BKN100
      BECMG 1504/1506 7000 -RA BKN012 BKN030 PROB30
     TEMPO 1505/1509 3000 DZ BKN008
      BECMG 1509/1512 18013KT PROB40
      TEMPO 1514/1518 18015G25KT 2500 -RADZ BKN006


Les logs des jours précédents :
 http:///airkalo.com/ORLYAVIATION/Logdumois.html